sensor_id;sensor_type;location;lat;lon;timestamp;pressure;altitude;pressure_sealevel;temperature;humidity
50790;BME280;37287;47.554;7.844;2023-02-23T00:01:56;97572.44;;;7.27;100.00
50790;BME280;37287;47.554;7.844;2023-02-23T00:04:23;97586.25;;;7.25;100.00
50790;BME280;37287;47.554;7.844;2023-02-23T00:06:51;97576.66;;;7.24;100.00
50790;BME280;37287;47.554;7.844;2023-02-23T00:09:18;97578.19;;;7.25;100.00
50790;BME280;37287;47.554;7.844;2023-02-23T00:11:52;97578.53;;;7.23;100.00
50790;BME280;37287;47.554;7.844;2023-02-23T00:14:24;97578.13;;;7.21;100.00
50790;BME280;37287;47.554;7.844;2023-02-23T00:16:53;97580.47;;;7.23;100.00
50790;BME280;37287;47.554;7.844;2023-02-23T00:19:20;97581.59;;;7.22;100.00
50790;BME280;37287;47.554;7.844;2023-02-23T00:21:52;97578.13;;;7.21;100.00
50790;BME280;37287;47.554;7.844;2023-02-23T00:24:19;97576.66;;;7.24;100.00
50790;BME280;37287;47.554;7.844;2023-02-23T00:26:47;97573.94;;;7.24;100.00
50790;BME280;37287;47.554;7.844;2023-02-23T00:29:22;97576.22;;;7.22;100.00
50790;BME280;37287;47.554;7.844;2023-02-23T00:31:50;97576.22;;;7.22;100.00
50790;BME280;37287;47.554;7.844;2023-02-23T00:34:20;97570.78;;;7.18;100.00
50790;BME280;37287;47.554;7.844;2023-02-23T00:36:53;97569.22;;;7.17;100.00
50790;BME280;37287;47.554;7.844;2023-02-23T00:39:22;97568.84;;;7.19;100.00
50790;BME280;37287;47.554;7.844;2023-02-23T00:41:53;97573.41;;;7.15;100.00
50790;BME280;37287;47.554;7.844;2023-02-23T00:44:23;97575.75;;;7.16;100.00
50790;BME280;37287;47.554;7.844;2023-02-23T00:46:50;97574.59;;;7.17;100.00
50790;BME280;37287;47.554;7.844;2023-02-23T00:49:19;97569.22;;;7.17;100.00
50790;BME280;37287;47.554;7.844;2023-02-23T00:51:47;97570.00;;;7.18;100.00
50790;BME280;37287;47.554;7.844;2023-02-23T00:54:15;97573.03;;;7.16;100.00
50790;BME280;37287;47.554;7.844;2023-02-23T00:56:45;97571.84;;;7.14;100.00
50790;BME280;37287;47.554;7.844;2023-02-23T00:59:18;97570.69;;;7.11;100.00
50790;BME280;37287;47.554;7.844;2023-02-23T01:01:45;97561.81;;;7.11;100.00
50790;BME280;37287;47.554;7.844;2023-02-23T01:04:13;97558.34;;;7.10;100.00
50790;BME280;37287;47.554;7.844;2023-02-23T01:06:41;97555.66;;;7.10;100.00
50790;BME280;37287;47.554;7.844;2023-02-23T01:09:13;97544.88;;;7.10;100.00
50790;BME280;37287;47.554;7.844;2023-02-23T01:11:41;97548.34;;;7.11;100.00
50790;BME280;37287;47.554;7.844;2023-02-23T01:14:09;97549.13;;;7.11;100.00
50790;BME280;37287;47.554;7.844;2023-02-23T01:16:38;97542.97;;;7.11;100.00
50790;BME280;37287;47.554;7.844;2023-02-23T01:19:09;97549.47;;;7.10;100.00
50790;BME280;37287;47.554;7.844;2023-02-23T01:21:38;97549.13;;;7.11;100.00
50790;BME280;37287;47.554;7.844;2023-02-23T01:24:05;97546.00;;;7.09;100.00
50790;BME280;37287;47.554;7.844;2023-02-23T01:26:34;97542.97;;;7.11;100.00
50790;BME280;37287;47.554;7.844;2023-02-23T01:29:05;97536.00;;;7.10;100.00
50790;BME280;37287;47.554;7.844;2023-02-23T01:31:41;97539.50;;;7.10;100.00
50790;BME280;37287;47.554;7.844;2023-02-23T01:34:10;97546.78;;;7.10;100.00
50790;BME280;37287;47.554;7.844;2023-02-23T01:36:39;97536.00;;;7.10;100.00
50790;BME280;37287;47.554;7.844;2023-02-23T01:39:09;97539.50;;;7.10;100.00
50790;BME280;37287;47.554;7.844;2023-02-23T01:41:38;97538.69;;;7.10;100.00
50790;BME280;37287;47.554;7.844;2023-02-23T01:46:43;97536.00;;;7.10;100.00
50790;BME280;37287;47.554;7.844;2023-02-23T01:49:15;97526.41;;;7.09;100.00
50790;BME280;37287;47.554;7.844;2023-02-23T01:51:50;97534.84;;;7.07;100.00
50790;BME280;37287;47.554;7.844;2023-02-23T01:54:21;97527.47;;;7.04;100.00
50790;BME280;37287;47.554;7.844;2023-02-23T01:56:50;97520.47;;;6.99;100.00
50790;BME280;37287;47.554;7.844;2023-02-23T01:59:32;97515.75;;;6.93;100.00
50790;BME280;37287;47.554;7.844;2023-02-23T02:02:05;97509.56;;;6.88;100.00
50790;BME280;37287;47.554;7.844;2023-02-23T02:04:37;97511.03;;;6.86;100.00
50790;BME280;37287;47.554;7.844;2023-02-23T02:07:17;97528.59;;;6.80;100.00
50790;BME280;37287;47.554;7.844;2023-02-23T02:09:46;97523.94;;;6.77;100.00
50790;BME280;37287;47.554;7.844;2023-02-23T02:12:39;97525.44;;;6.74;100.00
50790;BME280;37287;47.554;7.844;2023-02-23T02:15:07;97525.38;;;6.70;100.00
50790;BME280;37287;47.554;7.844;2023-02-23T02:21:16;97526.88;;;6.68;100.00
50790;BME280;37287;47.554;7.844;2023-02-23T02:26:48;97517.25;;;6.67;100.00
50790;BME280;37287;47.554;7.844;2023-02-23T02:38:03;97508.78;;;6.65;100.00
50790;BME280;37287;47.554;7.844;2023-02-23T02:43:24;97512.88;;;6.59;100.00
50790;BME280;37287;47.554;7.844;2023-02-23T02:46:05;97508.94;;;6.52;100.00
50790;BME280;37287;47.554;7.844;2023-02-23T02:53:50;97512.75;;;6.51;100.00
50790;BME280;37287;47.554;7.844;2023-02-23T02:56:21;97510.06;;;6.51;100.00
50790;BME280;37287;47.554;7.844;2023-02-23T02:58:51;97510.50;;;6.53;100.00
50790;BME280;37287;47.554;7.844;2023-02-23T03:01:19;97510.50;;;6.53;100.00
50790;BME280;37287;47.554;7.844;2023-02-23T03:04:23;97507.09;;;6.57;100.00
50790;BME280;37287;47.554;7.844;2023-02-23T03:07:20;97499.78;;;6.57;100.00
50790;BME280;37287;47.554;7.844;2023-02-23T03:13:17;97497.47;;;6.56;100.00
50790;BME280;37287;47.554;7.844;2023-02-23T03:19:43;97498.59;;;6.54;100.00
50790;BME280;37287;47.554;7.844;2023-02-23T03:22:37;97495.13;;;6.54;100.00
50790;BME280;37287;47.554;7.844;2023-02-23T03:25:52;97498.25;;;6.56;100.00
50790;BME280;37287;47.554;7.844;2023-02-23T03:29:11;97505.53;;;6.56;100.00
50790;BME280;37287;47.554;7.844;2023-02-23T03:32:17;97502.84;;;6.56;100.00
50790;BME280;37287;47.554;7.844;2023-02-23T03:35:15;97508.28;;;6.59;100.00
50790;BME280;37287;47.554;7.844;2023-02-23T03:38:09;97505.25;;;6.61;100.00
50790;BME280;37287;47.554;7.844;2023-02-23T03:40:57;97502.19;;;6.62;100.00
50790;BME280;37287;47.554;7.844;2023-02-23T03:43:49;97510.66;;;6.64;100.00
50790;BME280;37287;47.554;7.844;2023-02-23T03:46:41;97506.84;;;6.65;100.00
50790;BME280;37287;47.554;7.844;2023-02-23T03:49:33;97504.53;;;6.64;100.00
50790;BME280;37287;47.554;7.844;2023-02-23T03:52:22;97505.28;;;6.64;100.00
50790;BME280;37287;47.554;7.844;2023-02-23T03:55:15;97508.41;;;6.66;100.00
50790;BME280;37287;47.554;7.844;2023-02-23T03:58:05;97503.03;;;6.66;100.00
50790;BME280;37287;47.554;7.844;2023-02-23T04:00:55;97505.34;;;6.68;100.00
50790;BME280;37287;47.554;7.844;2023-02-23T04:03:45;97512.66;;;6.67;100.00
50790;BME280;37287;47.554;7.844;2023-02-23T04:06:35;97513.44;;;6.68;100.00
50790;BME280;37287;47.554;7.844;2023-02-23T04:09:22;97506.50;;;6.67;100.00
50790;BME280;37287;47.554;7.844;2023-02-23T04:12:14;97506.09;;;6.65;100.00
50790;BME280;37287;47.554;7.844;2023-02-23T04:15:25;97497.94;;;6.61;100.00
50790;BME280;37287;47.554;7.844;2023-02-23T04:17:53;97498.38;;;6.63;100.00
50790;BME280;37287;47.554;7.844;2023-02-23T04:20:23;97498.38;;;6.63;100.00
50790;BME280;37287;47.554;7.844;2023-02-23T04:22:51;97502.97;;;6.63;100.00
50790;BME280;37287;47.554;7.844;2023-02-23T04:25:18;97505.25;;;6.61;100.00
50790;BME280;37287;47.554;7.844;2023-02-23T04:27:50;97495.25;;;6.61;100.00
50790;BME280;37287;47.554;7.844;2023-02-23T04:30:17;97502.19;;;6.62;100.00
50790;BME280;37287;47.554;7.844;2023-02-23T04:32:48;97502.97;;;6.63;100.00
50790;BME280;37287;47.554;7.844;2023-02-23T04:35:19;97499.91;;;6.64;100.00
50790;BME280;37287;47.554;7.844;2023-02-23T04:37:45;97499.50;;;6.62;100.00
50790;BME280;37287;47.554;7.844;2023-02-23T04:40:14;97498.25;;;6.56;100.00
50790;BME280;37287;47.554;7.844;2023-02-23T04:42:49;97495.56;;;6.56;100.00
50790;BME280;37287;47.554;7.844;2023-02-23T04:45:18;97499.84;;;6.61;100.00
50790;BME280;37287;47.554;7.844;2023-02-23T04:47:45;97502.59;;;6.64;100.00
50790;BME280;37287;47.554;7.844;2023-02-23T04:50:12;97496.53;;;6.67;100.00
50790;BME280;37287;47.554;7.844;2023-02-23T04:52:39;97503.88;;;6.70;100.00
50790;BME280;37287;47.554;7.844;2023-02-23T04:55:06;97508.09;;;6.71;100.00
50790;BME280;37287;47.554;7.844;2023-02-23T04:57:34;97502.72;;;6.71;100.00
50790;BME280;37287;47.554;7.844;2023-02-23T05:00:00;97500.47;;;6.74;100.00
50790;BME280;37287;47.554;7.844;2023-02-23T05:02:29;97497.75;;;6.74;100.00
50790;BME280;37287;47.554;7.844;2023-02-23T05:04:57;97499.34;;;6.75;100.00
50790;BME280;37287;47.554;7.844;2023-02-23T05:07:24;97494.72;;;6.75;100.00
50790;BME280;37287;47.554;7.844;2023-02-23T05:09:53;97493.94;;;6.75;100.00
50790;BME280;37287;47.554;7.844;2023-02-23T05:12:25;97493.50;;;6.72;100.00
50790;BME280;37287;47.554;7.844;2023-02-23T05:14:52;97499.25;;;6.71;100.00
50790;BME280;37287;47.554;7.844;2023-02-23T05:17:20;97507.69;;;6.69;100.00
50790;BME280;37287;47.554;7.844;2023-02-23T05:19:58;97502.31;;;6.69;100.00
50790;BME280;37287;47.554;7.844;2023-02-23T05:22:24;97504.63;;;6.71;100.00
50790;BME280;37287;47.554;7.844;2023-02-23T05:24:51;97505.75;;;6.70;100.00
50790;BME280;37287;47.554;7.844;2023-02-23T05:27:22;97501.53;;;6.69;100.00
50790;BME280;37287;47.554;7.844;2023-02-23T05:29:50;97499.91;;;6.64;100.00
50790;BME280;37287;47.554;7.844;2023-02-23T05:32:18;97499.50;;;6.62;100.00
50790;BME280;37287;47.554;7.844;2023-02-23T05:34:47;97496.81;;;6.62;100.00
50790;BME280;37287;47.554;7.844;2023-02-23T05:37:14;97501.47;;;6.65;100.00
50790;BME280;37287;47.554;7.844;2023-02-23T05:39:40;97497.66;;;6.66;100.00
50790;BME280;37287;47.554;7.844;2023-02-23T05:42:09;97506.50;;;6.67;100.00
50790;BME280;37287;47.554;7.844;2023-02-23T05:44:36;97506.13;;;6.68;100.00
50790;BME280;37287;47.554;7.844;2023-02-23T05:47:03;97506.13;;;6.68;100.00
50790;BME280;37287;47.554;7.844;2023-02-23T05:49:31;97506.13;;;6.68;100.00
50790;BME280;37287;47.554;7.844;2023-02-23T05:51:58;97506.91;;;6.69;100.00
50790;BME280;37287;47.554;7.844;2023-02-23T05:54:26;97498.50;;;6.70;100.00
50790;BME280;37287;47.554;7.844;2023-02-23T05:56:58;97497.75;;;6.74;100.00
50790;BME280;37287;47.554;7.844;2023-02-23T05:59:27;97493.94;;;6.75;100.00
50790;BME280;37287;47.554;7.844;2023-02-23T06:01:54;97492.09;;;6.79;100.00
50790;BME280;37287;47.554;7.844;2023-02-23T06:04:22;97491.72;;;6.80;100.00
50790;BME280;37287;47.554;7.844;2023-02-23T06:06:50;97492.50;;;6.81;100.00
50790;BME280;37287;47.554;7.844;2023-02-23T06:09:17;97489.41;;;6.79;100.00
50790;BME280;37287;47.554;7.844;2023-02-23T06:11:44;97495.56;;;6.79;100.00
50790;BME280;37287;47.554;7.844;2023-02-23T06:14:10;97499.38;;;6.78;100.00
50790;BME280;37287;47.554;7.844;2023-02-23T06:16:37;97495.47;;;6.76;100.00
50790;BME280;37287;47.554;7.844;2023-02-23T06:19:06;97493.94;;;6.75;100.00
50790;BME280;37287;47.554;7.844;2023-02-23T06:21:33;97489.25;;;6.71;100.00
50790;BME280;37287;47.554;7.844;2023-02-23T06:23:59;97503.16;;;6.74;100.00
50790;BME280;37287;47.554;7.844;2023-02-23T06:26:28;97495.81;;;6.70;100.00
50790;BME280;37287;47.554;7.844;2023-02-23T06:28:55;97492.38;;;6.74;100.00
50790;BME280;37287;47.554;7.844;2023-02-23T06:31:22;97502.03;;;6.75;100.00
50790;BME280;37287;47.554;7.844;2023-02-23T06:33:48;97507.44;;;6.78;100.00
50790;BME280;37287;47.554;7.844;2023-02-23T06:36:16;97507.16;;;6.83;100.00
50790;BME280;37287;47.554;7.844;2023-02-23T06:38:42;97513.38;;;6.87;100.00
50790;BME280;37287;47.554;7.844;2023-02-23T06:41:11;97515.34;;;6.91;100.00
50790;BME280;37287;47.554;7.844;2023-02-23T06:43:38;97516.53;;;6.93;100.00
50790;BME280;37287;47.554;7.844;2023-02-23T06:46:04;97521.19;;;6.96;100.00
50790;BME280;37287;47.554;7.844;2023-02-23T06:48:33;97517.78;;;6.99;100.00
50790;BME280;37287;47.554;7.844;2023-02-23T06:51:01;97517.06;;;7.02;100.00
50790;BME280;37287;47.554;7.844;2023-02-23T06:53:27;97523.63;;;7.05;100.00
50790;BME280;37287;47.554;7.844;2023-02-23T06:55:57;97527.41;;;7.00;100.00
50790;BME280;37287;47.554;7.844;2023-02-23T06:58:24;97527.34;;;6.97;100.00
50790;BME280;37287;47.554;7.844;2023-02-23T07:00:50;97533.53;;;6.97;100.00
50790;BME280;37287;47.554;7.844;2023-02-23T07:03:17;97536.22;;;6.97;100.00
50790;BME280;37287;47.554;7.844;2023-02-23T07:05:44;97535.91;;;7.02;100.00
50790;BME280;37287;47.554;7.844;2023-02-23T07:08:11;97536.75;;;7.06;100.00
50790;BME280;37287;47.554;7.844;2023-02-23T07:10:39;97543.75;;;7.11;100.00
50790;BME280;37287;47.554;7.844;2023-02-23T07:13:06;97539.66;;;7.21;100.00
50790;BME280;37287;47.554;7.844;2023-02-23T07:15:36;97547.13;;;7.31;100.00
50790;BME280;37287;47.554;7.844;2023-02-23T07:18:03;97553.81;;;7.41;100.00
50790;BME280;37287;47.554;7.844;2023-02-23T07:20:30;97553.19;;;7.51;100.00
50790;BME280;37287;47.554;7.844;2023-02-23T07:22:59;97552.91;;;7.56;100.00
50790;BME280;37287;47.554;7.844;2023-02-23T07:25:30;97552.25;;;7.67;100.00
50790;BME280;37287;47.554;7.844;2023-02-23T07:27:57;97543.50;;;7.73;100.00
50790;BME280;37287;47.554;7.844;2023-02-23T07:30:24;97539.34;;;7.80;100.00
50790;BME280;37287;47.554;7.844;2023-02-23T07:32:51;97553.66;;;7.87;100.00
50790;BME280;37287;47.554;7.844;2023-02-23T07:35:19;97548.81;;;7.97;100.00
50790;BME280;37287;47.554;7.844;2023-02-23T07:37:45;97556.59;;;8.05;100.00
50790;BME280;37287;47.554;7.844;2023-02-23T07:40:12;97559.81;;;8.15;100.00
50790;BME280;37287;47.554;7.844;2023-02-23T07:42:39;97556.41;;;8.21;100.00
50790;BME280;37287;47.554;7.844;2023-02-23T07:45:06;97551.47;;;8.27;100.00
50790;BME280;37287;47.554;7.844;2023-02-23T07:47:35;97558.53;;;8.39;100.00
50790;BME280;37287;47.554;7.844;2023-02-23T07:50:04;97558.28;;;8.48;100.00
50790;BME280;37287;47.554;7.844;2023-02-23T07:52:38;97559.16;;;8.59;100.00
50790;BME280;37287;47.554;7.844;2023-02-23T07:55:10;97551.94;;;8.67;100.00
50790;BME280;37287;47.554;7.844;2023-02-23T07:57:37;97558.50;;;8.69;100.00
50790;BME280;37287;47.554;7.844;2023-02-23T08:00:05;97559.72;;;8.75;100.00
50790;BME280;37287;47.554;7.844;2023-02-23T08:02:32;97562.06;;;8.81;100.00
50790;BME280;37287;47.554;7.844;2023-02-23T08:04:59;97561.34;;;8.84;100.00
50790;BME280;37287;47.554;7.844;2023-02-23T08:07:25;97569.03;;;8.82;100.00
50790;BME280;37287;47.554;7.844;2023-02-23T08:09:53;97568.28;;;8.85;100.00
50790;BME280;37287;47.554;7.844;2023-02-23T08:12:20;97571.03;;;8.88;100.00
50790;BME280;37287;47.554;7.844;2023-02-23T08:14:47;97561.91;;;9.04;100.00
50790;BME280;37287;47.554;7.844;2023-02-23T08:17:24;97568.63;;;9.21;100.00
50790;BME280;37287;47.554;7.844;2023-02-23T08:19:51;97572.63;;;9.41;100.00
50790;BME280;37287;47.554;7.844;2023-02-23T08:22:18;97570.28;;;9.40;100.00
50790;BME280;37287;47.554;7.844;2023-02-23T08:24:44;97567.31;;;9.52;100.00
50790;BME280;37287;47.554;7.844;2023-02-23T08:27:11;97572.38;;;9.57;100.00
50790;BME280;37287;47.554;7.844;2023-02-23T08:29:38;97570.75;;;9.49;100.00
50790;BME280;37287;47.554;7.844;2023-02-23T08:32:05;97568.81;;;9.50;100.00
50790;BME280;37287;47.554;7.844;2023-02-23T08:34:36;97578.16;;;9.56;100.00
50790;BME280;37287;47.554;7.844;2023-02-23T08:37:03;97568.50;;;9.58;100.00
50790;BME280;37287;47.554;7.844;2023-02-23T08:39:30;97571.56;;;9.57;100.00
50790;BME280;37287;47.554;7.844;2023-02-23T08:41:56;97563.84;;;9.52;100.00
50790;BME280;37287;47.554;7.844;2023-02-23T08:44:25;97582.00;;;9.55;100.00
50790;BME280;37287;47.554;7.844;2023-02-23T08:47:02;97579.69;;;9.57;100.00
50790;BME280;37287;47.554;7.844;2023-02-23T08:49:29;97585.94;;;9.68;100.00
50790;BME280;37287;47.554;7.844;2023-02-23T08:51:57;97579.88;;;9.86;100.00
50790;BME280;37287;47.554;7.844;2023-02-23T08:54:26;97580.63;;;9.83;100.00
50790;BME280;37287;47.554;7.844;2023-02-23T08:56:55;97582.97;;;9.88;100.00
50790;BME280;37287;47.554;7.844;2023-02-23T08:59:23;97581.72;;;9.71;100.00
50790;BME280;37287;47.554;7.844;2023-02-23T09:01:52;97581.31;;;9.69;100.00
50790;BME280;37287;47.554;7.844;2023-02-23T09:04:19;97577.00;;;9.60;100.00
50790;BME280;37287;47.554;7.844;2023-02-23T09:06:46;97570.94;;;9.74;100.00
50790;BME280;37287;47.554;7.844;2023-02-23T09:09:15;97569.81;;;9.83;100.00
50790;BME280;37287;47.554;7.844;2023-02-23T09:11:42;97577.84;;;9.72;100.00
50790;BME280;37287;47.554;7.844;2023-02-23T09:14:12;97581.41;;;9.83;100.00
50790;BME280;37287;47.554;7.844;2023-02-23T09:16:45;97578.28;;;9.77;100.00
50790;BME280;37287;47.554;7.844;2023-02-23T09:19:13;97574.41;;;9.75;100.00
50790;BME280;37287;47.554;7.844;2023-02-23T09:21:39;97574.16;;;10.02;100.00
50790;BME280;37287;47.554;7.844;2023-02-23T09:24:09;97571.81;;;9.96;100.00
50790;BME280;37287;47.554;7.844;2023-02-23T09:26:36;97575.31;;;9.97;100.00
50790;BME280;37287;47.554;7.844;2023-02-23T09:29:06;97574.59;;;10.14;100.00
50790;BME280;37287;47.554;7.844;2023-02-23T09:31:32;97569.22;;;10.22;100.00
50790;BME280;37287;47.554;7.844;2023-02-23T09:33:59;97580.97;;;10.58;100.00
50790;BME280;37287;47.554;7.844;2023-02-23T09:36:28;97570.97;;;10.66;100.00
50790;BME280;37287;47.554;7.844;2023-02-23T09:38:57;97578.69;;;10.78;100.00
50790;BME280;37287;47.554;7.844;2023-02-23T09:41:49;97576.78;;;10.82;100.00
50790;BME280;37287;47.554;7.844;2023-02-23T09:47:56;97569.09;;;11.17;100.00
50790;BME280;37287;47.554;7.844;2023-02-23T09:50:16;97569.03;;;11.78;100.00
50790;BME280;37287;47.554;7.844;2023-02-23T09:52:46;97568.88;;;12.36;100.00
50790;BME280;37287;47.554;7.844;2023-02-23T09:55:18;97577.84;;;12.18;93.76
50790;BME280;37287;47.554;7.844;2023-02-23T09:57:47;97574.03;;;12.01;98.21
50790;BME280;37287;47.554;7.844;2023-02-23T10:00:19;97570.19;;;11.95;97.73
50790;BME280;37287;47.554;7.844;2023-02-23T10:03:10;97566.13;;;12.43;98.38
50790;BME280;37287;47.554;7.844;2023-02-23T10:05:47;97573.50;;;13.10;91.70
50790;BME280;37287;47.554;7.844;2023-02-23T10:08:45;97572.41;;;13.49;88.61
50790;BME280;37287;47.554;7.844;2023-02-23T10:11:22;97571.25;;;13.91;87.53
50790;BME280;37287;47.554;7.844;2023-02-23T10:14:09;97563.00;;;13.99;88.34
50790;BME280;37287;47.554;7.844;2023-02-23T10:21:54;97563.78;;;13.08;90.82
50790;BME280;37287;47.554;7.844;2023-02-23T10:24:35;97561.06;;;13.08;90.19
50790;BME280;37287;47.554;7.844;2023-02-23T10:27:09;97553.22;;;13.21;91.66
50790;BME280;37287;47.554;7.844;2023-02-23T10:29:51;97567.09;;;13.38;92.22
50790;BME280;37287;47.554;7.844;2023-02-23T10:32:40;97554.69;;;13.30;93.09
50790;BME280;37287;47.554;7.844;2023-02-23T10:35:16;97560.97;;;13.23;93.11
50790;BME280;37287;47.554;7.844;2023-02-23T10:37:46;97562.69;;;12.99;90.99
50790;BME280;37287;47.554;7.844;2023-02-23T10:40:18;97554.03;;;12.55;93.50
50790;BME280;37287;47.554;7.844;2023-02-23T10:42:46;97553.72;;;12.42;96.07
50790;BME280;37287;47.554;7.844;2023-02-23T10:45:23;97562.28;;;12.30;96.75
50790;BME280;37287;47.554;7.844;2023-02-23T10:48:07;97556.97;;;12.08;96.77
50790;BME280;37287;47.554;7.844;2023-02-23T10:50:37;97547.66;;;12.06;98.57
50790;BME280;37287;47.554;7.844;2023-02-23T10:53:15;97547.66;;;12.09;99.95
50790;BME280;37287;47.554;7.844;2023-02-23T10:55:44;97555.00;;;12.12;97.98
50790;BME280;37287;47.554;7.844;2023-02-23T10:58:19;97551.53;;;12.04;98.14
50790;BME280;37287;47.554;7.844;2023-02-23T11:00:51;97553.75;;;12.35;98.37
50790;BME280;37287;47.554;7.844;2023-02-23T11:03:32;97544.44;;;12.36;95.86
50790;BME280;37287;47.554;7.844;2023-02-23T11:05:59;97547.13;;;12.43;97.21
50790;BME280;37287;47.554;7.844;2023-02-23T11:08:33;97547.44;;;12.52;96.38
50790;BME280;37287;47.554;7.844;2023-02-23T11:11:05;97551.41;;;12.44;95.71
50790;BME280;37287;47.554;7.844;2023-02-23T11:13:38;97544.06;;;12.34;94.68
50790;BME280;37287;47.554;7.844;2023-02-23T11:19:00;97552.16;;;12.41;96.39
50790;BME280;37287;47.554;7.844;2023-02-23T11:24:18;97541.34;;;13.01;95.23
50790;BME280;37287;47.554;7.844;2023-02-23T11:26:49;97528.44;;;13.12;94.00
50790;BME280;37287;47.554;7.844;2023-02-23T11:29:32;97524.59;;;13.06;93.83
50790;BME280;37287;47.554;7.844;2023-02-23T11:32:16;97527.81;;;12.94;93.31
50790;BME280;37287;47.554;7.844;2023-02-23T11:35:19;97529.44;;;12.84;92.86
50790;BME280;37287;47.554;7.844;2023-02-23T11:37:54;97515.34;;;13.00;94.15
50790;BME280;37287;47.554;7.844;2023-02-23T11:40:28;97523.25;;;12.76;90.73
50790;BME280;37287;47.554;7.844;2023-02-23T11:42:56;97515.22;;;12.62;94.30
50790;BME280;37287;47.554;7.844;2023-02-23T11:45:28;97509.31;;;12.74;94.99
50790;BME280;37287;47.554;7.844;2023-02-23T11:48:01;97507.06;;;12.62;94.45
50790;BME280;37287;47.554;7.844;2023-02-23T11:50:34;97514.75;;;12.70;96.44
50790;BME280;37287;47.554;7.844;2023-02-23T11:53:10;97502.28;;;12.80;95.50
50790;BME280;37287;47.554;7.844;2023-02-23T11:55:45;97505.38;;;12.82;95.95
50790;BME280;37287;47.554;7.844;2023-02-23T11:58:32;97503.03;;;12.81;94.34
50790;BME280;37287;47.554;7.844;2023-02-23T12:01:12;97503.44;;;12.79;95.87
50790;BME280;37287;47.554;7.844;2023-02-23T12:03:45;97497.59;;;12.84;94.81
50790;BME280;37287;47.554;7.844;2023-02-23T12:06:29;97498.69;;;12.90;94.41
50790;BME280;37287;47.554;7.844;2023-02-23T12:09:00;97498.50;;;13.16;93.50
50790;BME280;37287;47.554;7.844;2023-02-23T12:11:33;97496.34;;;13.41;92.29
50790;BME280;37287;47.554;7.844;2023-02-23T12:14:36;97507.44;;;13.62;88.30
50790;BME280;37287;47.554;7.844;2023-02-23T12:17:23;97494.41;;;13.80;85.61
50790;BME280;37287;47.554;7.844;2023-02-23T12:20:13;97497.41;;;13.89;82.58
50790;BME280;37287;47.554;7.844;2023-02-23T12:22:54;97495.78;;;13.96;83.22
50790;BME280;37287;47.554;7.844;2023-02-23T12:25:34;97496.13;;;13.98;84.10
50790;BME280;37287;47.554;7.844;2023-02-23T12:28:12;97492.34;;;13.91;81.68
50790;BME280;37287;47.554;7.844;2023-02-23T12:30:55;97489.97;;;13.93;80.89
50790;BME280;37287;47.554;7.844;2023-02-23T12:33:31;97484.25;;;13.84;82.02
50790;BME280;37287;47.554;7.844;2023-02-23T12:36:24;97491.22;;;13.85;81.99
50790;BME280;37287;47.554;7.844;2023-02-23T12:38:58;97485.00;;;13.88;84.36
50790;BME280;37287;47.554;7.844;2023-02-23T12:41:38;97490.47;;;13.85;80.04
50790;BME280;37287;47.554;7.844;2023-02-23T12:44:52;97481.78;;;13.97;80.55
50790;BME280;37287;47.554;7.844;2023-02-23T12:47:43;97478.56;;;14.02;81.65
50790;BME280;37287;47.554;7.844;2023-02-23T12:50:26;97476.91;;;14.12;80.25
50790;BME280;37287;47.554;7.844;2023-02-23T12:52:57;97467.78;;;14.26;79.65
50790;BME280;37287;47.554;7.844;2023-02-23T12:55:34;97468.91;;;14.28;76.99
50790;BME280;37287;47.554;7.844;2023-02-23T13:00:54;97459.00;;;14.42;74.43
50790;BME280;37287;47.554;7.844;2023-02-23T13:09:42;97461.22;;;14.78;74.25
50790;BME280;37287;47.554;7.844;2023-02-23T13:12:24;97458.38;;;14.85;74.70
50790;BME280;37287;47.554;7.844;2023-02-23T13:14:56;97449.44;;;14.85;73.66
50790;BME280;37287;47.554;7.844;2023-02-23T13:17:46;97451.75;;;14.86;73.76
50790;BME280;37287;47.554;7.844;2023-02-23T13:20:29;97450.91;;;14.89;74.31
50790;BME280;37287;47.554;7.844;2023-02-23T13:23:23;97453.75;;;14.82;73.96
50790;BME280;37287;47.554;7.844;2023-02-23T13:28:36;97455.88;;;14.71;74.61
50790;BME280;37287;47.554;7.844;2023-02-23T13:31:16;97448.88;;;14.70;75.29
50790;BME280;37287;47.554;7.844;2023-02-23T13:33:46;97451.19;;;14.71;75.72
50790;BME280;37287;47.554;7.844;2023-02-23T13:36:15;97448.34;;;14.78;76.18
50790;BME280;37287;47.554;7.844;2023-02-23T13:41:26;97449.03;;;14.86;76.25
50790;BME280;37287;47.554;7.844;2023-02-23T13:52:25;97448.38;;;15.02;72.40
50790;BME280;37287;47.554;7.844;2023-02-23T13:54:58;97440.47;;;15.08;73.59
50790;BME280;37287;47.554;7.844;2023-02-23T13:57:30;97436.78;;;15.18;73.41
50790;BME280;37287;47.554;7.844;2023-02-23T13:59:58;97437.78;;;15.28;73.28
50790;BME280;37287;47.554;7.844;2023-02-23T14:04:56;97431.50;;;15.31;72.74
50790;BME280;37287;47.554;7.844;2023-02-23T14:07:31;97435.84;;;15.28;73.22
50790;BME280;37287;47.554;7.844;2023-02-23T14:10:07;97429.72;;;15.21;72.89
50790;BME280;37287;47.554;7.844;2023-02-23T14:12:40;97435.59;;;15.19;73.53
50790;BME280;37287;47.554;7.844;2023-02-23T14:20:51;97430.22;;;15.16;70.10
50790;BME280;37287;47.554;7.844;2023-02-23T14:29:23;97420.34;;;14.78;67.70
50790;BME280;37287;47.554;7.844;2023-02-23T14:32:26;97417.03;;;14.67;73.02
50790;BME280;37287;47.554;7.844;2023-02-23T14:34:55;97417.06;;;14.63;73.54
50790;BME280;37287;47.554;7.844;2023-02-23T14:37:41;97419.56;;;14.50;71.87
50790;BME280;37287;47.554;7.844;2023-02-23T14:40:12;97418.50;;;14.44;73.15
50790;BME280;37287;47.554;7.844;2023-02-23T14:42:46;97415.91;;;14.37;74.37
50790;BME280;37287;47.554;7.844;2023-02-23T14:45:21;97415.53;;;14.35;75.08
50790;BME280;37287;47.554;7.844;2023-02-23T14:47:55;97412.06;;;14.31;74.95
50790;BME280;37287;47.554;7.844;2023-02-23T14:50:33;97410.56;;;14.30;75.31
50790;BME280;37287;47.554;7.844;2023-02-23T14:53:02;97408.19;;;14.32;76.54
50790;BME280;37287;47.554;7.844;2023-02-23T14:55:32;97412.91;;;14.27;76.45
50790;BME280;37287;47.554;7.844;2023-02-23T14:58:20;97408.41;;;14.17;75.47